sim
Sign-in with your pilot id or email,
or register
Callsign
Passwort

Schedule Details

Flight Number: EWG1739 (1)
Departure: Split Airport (LDSP) at 14:30
Arrival: Munich Airport (EDDM) at 16:05
Route: Eurowings Passenger Schedule. Enter filed route here before submitting Pirep.

Weather Information
Getting current METAR information for LDSP 231100Z 10007KT 050V140 9999 FEW025 24/18 Q1012 NOSIG
Getting current METAR information for EDDM 231120Z 23007KT 9999 FEW007 BKN033 16/15 Q1010 NOSIG

Schedule Frequency

Route Map